Terminal Aerodrome Forecast
Issued by NWS

Home | Current Version | Previous Version | Text Only | Print | Product List | Glossary On
Versions: 1 2 3 4 5 6 7 8 9 10 11 12 13 14
000
FTAK31 PAJN 261700
TAFASI
TAF
PASI 261736Z 2618/2718 36004KT P6SM -RA FEW008 BKN045 OVC080
     FM262100 16010KT 6SM -RA BR SCT015 OVC035
      TEMPO 2621/2701 4SM RA BR SCT010 OVC025
     FM270300 14006KT P6SM -RA SCT008 OVC025
     FM270900 VRB05KT 6SM -RA BR SCT008 BKN020 OVC035=

USA.gov is the U.S. government's official web portal to all federal, state and local government web resources and services.